| time (UTC) | temp F | wind direction | speed MPH | gust MPH | rain 1hr in | rain 24hr in | rain mn in | humidity % | barometer mb |
| 20260905230107 | 65 | 0.0 | 0.0 | 0.00 | 0.00 | 0.00 | 62 | 1207.2 | |
| 20260905224535 | 65 | 0.0 | 0.0 | 0.00 | 0.00 | 0.00 | 61 | 1207.7 | |
| 20260905223023 | 65 | 0.0 | 0.0 | 0.00 | 0.00 | 0.00 | 60 | 1208.2 | |
| 20260905221605 | 65 | 0.0 | 0.0 | 0.00 | 0.00 | 0.00 | 60 | 1209.6 | |
| 20260905220050 | 66 | 0.0 | 0.0 | 0.00 | 0.00 | 0.00 | 58 | 1210.3 | |
| 20260905214605 | 66 | 0.0 | 0.0 | 0.00 | 0.00 | 0.00 | 57 | 1210.2 | |
| 20260905213025 | 66 | 0.0 | 0.0 | 0.00 | 0.00 | 0.00 | 55 | 1211.6 | |
| 20260905211605 | 67 | 0.0 | 0.0 | 0.00 | 0.00 | 0.00 | 54 | 1211.6 | |
| 20260905210049 | 67 | 0.0 | 0.0 | 0.00 | 0.00 | 0.00 | 52 | 1210.8 | |
| 20260905204610 | 67 | 0.0 | 0.0 | 0.00 | 0.00 | 0.00 | 52 | 1211.5 | |
| 20260905203023 | 68 | 0.0 | 0.0 | 0.00 | 0.00 | 0.00 | 50 | 1209.8 | |
| 20260905201604 | 68 | 0.0 | 0.0 | 0.00 | 0.00 | 0.00 | 50 | 1210.5 | |
| 20260905200105 | 68 | 0.0 | 0.0 | 0.00 | 0.00 | 0.00 | 49 | 1210.5 | |
| 20260905194535 | 69 | 0.0 | 0.0 | 0.00 | 0.00 | 0.00 | 49 | 1210.3 | |
| 20260905193023 | 69 | 0.0 | 0.0 | 0.00 | 0.00 | 0.00 | 48 | 1209.4 | |
| 20260905191605 | 69 | 0.0 | 0.0 | 0.00 | 0.00 | 0.00 | 48 | 1209.3 | |
| 20260905190050 | 70 | 0.0 | 0.0 | 0.00 | 0.00 | 0.00 | 48 | 1208.4 | |
| 20260905184535 | 70 | 0.0 | 0.0 | 0.00 | 0.00 | 0.00 | 47 | 1209.1 | |
| 20260905183112 | 70 | 0.0 | 0.0 | 0.00 | 0.00 | 0.00 | 47 | 1208.2 | |
| 20260905181605 | 70 | 0.0 | 0.0 | 0.00 | 0.00 | 0.00 | 47 | 1208.2 | |
| 20260905180051 | 71 | 0.0 | 0.0 | 0.00 | 0.00 | 0.00 | 45 | 1207.1 | |
| 20260905174535 | 71 | 0.0 | 0.0 | 0.00 | 0.00 | 0.00 | 44 | 1207.0 | |
| 20260905173023 | 72 | 0.0 | 0.0 | 0.00 | 0.00 | 0.00 | 42 | 1205.3 | |
| 20260905171604 | 72 | 0.0 | 0.0 | 0.00 | 0.00 | 0.00 | 41 | 1204.6 | |
| 20260905170050 | 73 | 0.0 | 0.0 | 0.00 | 0.00 | 0.00 | 40 | 1203.8 | |
| 20260905164535 | 74 | 0.0 | 0.0 | 0.00 | 0.00 | 0.00 | 39 | 1202.1 | |
| 20260905163105 | 74 | 0.0 | 0.0 | 0.00 | 0.00 | 0.00 | 38 | 1200.5 | |
| 20260905161605 | 75 | 0.0 | 0.0 | 0.00 | 0.00 | 0.00 | 37 | 1199.0 | |
| 20260905160054 | 75 | 0.0 | 0.0 | 0.00 | 0.00 | 0.00 | 35 | 1197.4 | |
| 20260905154536 | 76 | 0.0 | 0.0 | 0.00 | 0.00 | 0.00 | 35 | 1198.2 | |
| 20260905153024 | 76 | 0.0 | 0.0 | 0.00 | 0.00 | 0.00 | 36 | 1197.2 | |
| 20260905151606 | 76 | 0.0 | 0.0 | 0.00 | 0.00 | 0.00 | 35 | 1196.5 | |
| 20260905150054 | 77 | 0.0 | 0.0 | 0.00 | 0.00 | 0.00 | 36 | 1196.6 | |
| 20260905144535 | 77 | 0.0 | 0.0 | 0.00 | 0.00 | 0.00 | 36 | 1195.0 | |
| 20260905143023 | 77 | 0.0 | 0.0 | 0.00 | 0.00 | 0.00 | 37 | 1193.5 | |
| 20260905141606 | 77 | 0.0 | 0.0 | 0.00 | 0.00 | 0.00 | 38 | 1193.5 | |
| 20260905140108 | 76 | 0.0 | 0.0 | 0.00 | 0.00 | 0.00 | 39 | 1192.7 | |
| 20260905134536 | 76 | 0.0 | 0.0 | 0.00 | 0.00 | 0.00 | 41 | 1192.9 | |
| 20260905133024 | 76 | 0.0 | 0.0 | 0.00 | 0.00 | 0.00 | 41 | 1191.5 | |
| 20260905131605 | 75 | 0.0 | 0.0 | 0.00 | 0.00 | 0.00 | 43 | 1190.8 | |
| 20260905130049 | 75 | 0.0 | 0.0 | 0.00 | 0.00 | 0.00 | 44 | 1190.2 | |
| 20260905124535 | 74 | 0.0 | 0.0 | 0.00 | 0.00 | 0.00 | 46 | 1190.2 | |
| 20260905123024 | 73 | 0.0 | 0.0 | 0.00 | 0.00 | 0.00 | 49 | 1190.3 | |
| 20260905121606 | 72 | 0.0 | 0.0 | 0.00 | 0.00 | 0.00 | 50 | 1190.3 | |
| 20260905120050 | 72 | 0.0 | 0.0 | 0.00 | 0.00 | 0.00 | 50 | 1190.2 | |
| 20260905114606 | 72 | 0.0 | 0.0 | 0.00 | 0.00 | 0.00 | 54 | 1189.5 | |
| 20260905113023 | 71 | 0.0 | 0.0 | 0.00 | 0.00 | 0.00 | 54 | 1180.5 | |
| 20260905111606 | 70 | 0.0 | 0.0 | 0.00 | 0.00 | 0.00 | 56 | 1178.3 | |
| 20260905110049 | 70 | 0.0 | 0.0 | 0.00 | 0.00 | 0.00 | 62 | 1176.8 | |
| 20260905104536 | 69 | 0.0 | 0.0 | 0.00 | 0.00 | 0.00 | 67 | 1175.2 | |
| 20260905103023 | 68 | 0.0 | 0.0 | 0.00 | 0.00 | 0.00 | 73 | 1175.3 | |
| 20260905101511 | 66 | 0.0 | 0.0 | 0.00 | 0.00 | 0.00 | 78 | 1174.5 | |
| 20260905100107 | 65 | 0.0 | 0.0 | 0.00 | 0.00 | 0.00 | 80 | 1174.5 | |
| 20260905094535 | 64 | 0.0 | 0.0 | 0.00 | 0.00 | 0.00 | 80 | 1173.9 | |
| 20260905093023 | 64 | 0.0 | 0.0 | 0.00 | 0.00 | 0.00 | 82 | 1175.1 | |
| 20260905091605 | 64 | 0.0 | 0.0 | 0.00 | 0.00 | 0.00 | 83 | 1175.1 | |
| 20260905090049 | 63 | 0.0 | 0.0 | 0.00 | 0.00 | 0.00 | 83 | 1174.2 | |
| 20260905084534 | 63 | 0.0 | 0.0 | 0.00 | 0.00 | 0.00 | 83 | 1175.1 | |
| 20260905083028 | 63 | 0.0 | 0.0 | 0.00 | 0.00 | 0.00 | 83 | 1175.1 | |
| 20260905081605 | 62 | 0.0 | 0.0 | 0.00 | 0.00 | 0.00 | 81 | 1175.3 | |
| 20260905080049 | 62 | 0.0 | 0.0 | 0.00 | 0.00 | 0.00 | 80 | 1176.2 | |
| 20260905074534 | 62 | 0.0 | 0.0 | 0.00 | 0.00 | 0.00 | 80 | 1175.3 | |
| 20260905073023 | 62 | 0.0 | 0.0 | 0.00 | 0.00 | 0.00 | 80 | 1176.1 | |
| 20260905071605 | 62 | 0.0 | 0.0 | 0.00 | 0.00 | 0.00 | 77 | 1176.1 | |
| 20260905070048 | 62 | 0.0 | 0.0 | 0.00 | 0.00 | 0.00 | 75 | 1176.2 | |
| 20260905064535 | 62 | 0.0 | 0.0 | 0.00 | 0.00 | 0.00 | 74 | 1177.2 | |
| 20260905063023 | 62 | 0.0 | 0.0 | 0.00 | 0.00 | 0.00 | 68 | 1177.9 | |
| 20260905061605 | 63 | 0.0 | 0.0 | 0.00 | 0.00 | 0.00 | 66 | 1177.3 | |
| 20260905060107 | 63 | 0.0 | 0.0 | 0.00 | 0.00 | 0.00 | 62 | 1176.7 | |
| 20260905054535 | 65 | 0.0 | 0.0 | 0.00 | 0.00 | 0.00 | 47 | 1178.1 | |
| 20260905053024 | 68 | 0.0 | 0.0 | 0.00 | 0.00 | 0.00 | 41 | 1178.2 | |
| 20260905051605 | 69 | 0.0 | 0.0 | 0.00 | 0.00 | 0.00 | 39 | 1177.2 | |
| 20260905050048 | 68 | 0.0 | 0.0 | 0.00 | 0.00 | 0.00 | 44 | 1177.4 | |
| 20260905044534 | 68 | 0.0 | 0.0 | 0.00 | 0.00 | 0.00 | 51 | 1176.5 | |
| 20260905043023 | 69 | 0.0 | 0.0 | 0.00 | 0.00 | 0.00 | 52 | 1177.0 | |
| 20260905041605 | 70 | 0.0 | 0.0 | 0.00 | 0.00 | 0.00 | 50 | 1176.9 | |
| 20260905040049 | 71 | 0.0 | 0.0 | 0.00 | 0.00 | 0.00 | 45 | 1176.9 | |
| 20260905034534 | 71 | 0.0 | 0.0 | 0.00 | 0.00 | 0.00 | 45 | 1177.4 | |
| 20260905033022 | 72 | 0.0 | 0.0 | 0.00 | 0.00 | 0.00 | 45 | 1177.4 | |
| 20260905031605 | 73 | 0.0 | 0.0 | 0.00 | 0.00 | 0.00 | 51 | 1177.4 | |
| 20260905030048 | 73 | 0.0 | 0.0 | 0.00 | 0.00 | 0.00 | 49 | 1176.2 | |
| 20260905024535 | 74 | 0.0 | 0.0 | 0.00 | 0.00 | 0.00 | 46 | 1176.0 | |
| 20260905023023 | 74 | 0.0 | 0.0 | 0.00 | 0.00 | 0.00 | 40 | 1175.9 | |
| 20260905021605 | 74 | 0.0 | 0.0 | 0.00 | 0.00 | 0.00 | 39 | 1175.6 | |
| 20260905020048 | 74 | 0.0 | 0.0 | 0.00 | 0.00 | 0.00 | 40 | 1177.1 | |
| 20260905014605 | 73 | 0.0 | 0.0 | 0.00 | 0.00 | 0.00 | 40 | 1177.8 | |
| 20260905013022 | 73 | 0.0 | 0.0 | 0.00 | 0.00 | 0.00 | 41 | 1176.9 | |
| 20260905011608 | 73 | 0.0 | 0.0 | 0.00 | 0.00 | 0.00 | 41 | 1178.4 | |
| 20260905010050 | 73 | 0.0 | 0.0 | 0.00 | 0.00 | 0.00 | 41 | 1177.5 | |
| 20260905004535 | 72 | 0.0 | 0.0 | 0.00 | 0.00 | 0.00 | 43 | 1178.1 | |
| 20260905003023 | 71 | 0.0 | 0.0 | 0.00 | 0.00 | 0.00 | 45 | 1178.8 | |
| 20260905001606 | 71 | 0.0 | 0.0 | 0.00 | 0.00 | 0.00 | 46 | 1178.8 | |
| 20260905000049 | 70 | 0.0 | 0.0 | 0.00 | 0.00 | 0.00 | 48 | 1178.7 | |
| 20260904234536 | 69 | 0.0 | 0.0 | 0.00 | 0.00 | 0.00 | 51 | 1180.9 | |
| 20260904233022 | 67 | 0.0 | 0.0 | 0.00 | 0.00 | 0.00 | 55 | 1180.9 | |
| 20260904231609 | 67 | 0.0 | 0.0 | 0.00 | 0.00 | 0.00 | 57 | 1182.2 |